Kake, AK (99830)

11:39 PM AKST on December 28, 2014 (GMT -0900)
RAWS KAKE AK US | Change Station
CLOSE
Current Station
Personal Weather Station
Location: Kake, AK
Elevation: 399 ft
Nearby Weather Stations

Elev 399 ft 56.97 °N, 133.66 °W | Updated 44 minutes ago

Clear
Clear
25 °F
Feels Like 19 °F
N
5
Wind Variable Wind from North
Gusts 8.0 mph

Today
High -- | Low -- °F
--% Chance of Precip.
Yesterday
High -- | Low -- °F
Precip. -- in
8:34 AM 3:20 PM
First Quarter, 56% visible
Pressure 30.85 in
Visibility 10.0 miles
Clouds Clear
Windchill 19 °F
Dew Point 22 °F
Humidity 90%
Rainfall 0.00 in
Snow Depth Not available.
UV 0 out of 12
Pollen Not available.
Air Quality Not available.
Flu Activity Not available.
METAR PAFE 290836Z AUTO 10004KT 10SM CLR M03/M07 A3085 RMK AO1

More Conditions Fewer Conditions

Pressure 30.85 in
Visibility 10.0 miles
Clouds Clear
Windchill 19 °F
Dew Point 22 °F
Humidity 90%
Rainfall 0.00 in
Snow Depth Not available.
UV 0 out of 12
Pollen Not available.
Air Quality Not available.
Flu Activity Not available.
METAR PAFE 290836Z AUTO 10004KT 10SM CLR M03/M07 A3085 RMK AO1

More Conditions Fewer Conditions

10-Day Weather Forecast

Almanac

Astronomy

Dec. 28, 2014 Rise Set
Actual Time
Civil Twilight
Nautical Twilight
Astronomical Twilight
Moon
Length of Visible Light
Length of Day
Tomorrow will be .
, % of the Moon is Illuminated

Today's Extremes

State Highs State Lows

Community

WunderPhotos

Upload Photos

1,781,558 photos uploaded!

WunderBlogs® & News

Nearby

Air Quality

  Air Quality AQ Index Pollutant
Not available.

Snow Depth

Station Depth Elevation

Earthquake Activity

City Distance Mag. Time & Date
Minimum magnitude displayed is 2.5.

Coastal Water Temperatures

Place Temperature

Nearby Weather Stations